Terminal Aerodrome Forecast
Issued by NWS Twin Cities, MN

Home | Current Version | Previous Version | Graphics & Text | Print | Product List | Glossary On
Versions: 1 2 3 4 5 6 7 8 9 10 11 12 13 14 15 16 17 18 19 20 21 22
000
FTUS43 KMPX 272325
TAFSTC
TAF
KSTC 272325Z 2800/2824 19009KT P6SM VCSH FEW050 BKN200
     FM280300 19010KT P6SM VCTS SCT050CB BKN120
      TEMPO 2804/2805 3SM TSRA OVC050CB
     FM280730 33010G16KT P6SM SKC
     FM280900 33011G17KT P6SM SCT035
     FM281400 34014G21KT P6SM SCT030 BKN050=

USA.gov is the U.S. government's official web portal to all federal, state and local government web resources and services.